Time,TemperatureF,DewpointF,PressureIn,WindDirection,WindDirectionDegrees,WindSpeedMPH,WindSpeedGustMPH,Humidity,HourlyPrecipIn,Conditions,Clouds,dailyrainin,SoftwareType,DateUTC
2013-03-29 00:05:00,38.0,32.0,30.29,WNW,292,0.0,0.0,78,0.00,,,0.00,weatherlink.com 1.10,2013-03-29 04:05:00,
2013-03-29 00:20:00,38.0,32.0,30.29,WNW,293,0.0,1.0,79,0.00,,,0.00,weatherlink.com 1.10,2013-03-29 04:20:00,
2013-03-29 00:35:00,37.7,33.0,30.29,WNW,292,0.0,0.0,82,0.00,,,0.00,weatherlink.com 1.10,2013-03-29 04:35:00,
2013-03-29 00:50:00,36.8,32.0,30.29,WNW,292,0.0,0.0,82,0.00,,,0.00,weatherlink.com 1.10,2013-03-29 04:50:00,
2013-03-29 01:05:00,36.7,33.0,30.29,WSW,251,1.0,1.0,86,0.00,,,0.00,weatherlink.com 1.10,2013-03-29 05:05:00,
2013-03-29 01:20:00,36.6,33.0,30.29,WSW,251,0.0,0.0,87,0.00,,,0.00,weatherlink.com 1.10,2013-03-29 05:20:00,
2013-03-29 01:35:00,36.3,33.0,30.29,WSW,249,0.0,1.0,89,0.00,,,0.00,weatherlink.com 1.10,2013-03-29 05:35:00,
2013-03-29 01:50:00,36.4,34.0,30.29,WSW,253,0.0,0.0,89,0.00,,,0.00,weatherlink.com 1.10,2013-03-29 05:50:00,
2013-03-29 02:05:00,36.4,34.0,30.29,WSW,252,0.0,0.0,91,0.00,,,0.00,weatherlink.com 1.10,2013-03-29 06:05:00,
2013-03-29 02:20:00,36.3,34.0,30.29,WSW,252,0.0,0.0,91,0.00,,,0.00,weatherlink.com 1.10,2013-03-29 06:20:00,
2013-03-29 02:35:00,36.1,34.0,30.29,WSW,253,0.0,1.0,92,0.00,,,0.00,weatherlink.com 1.10,2013-03-29 06:35:00,
2013-03-29 02:50:00,36.1,34.0,30.29,WSW,252,0.0,0.0,91,0.00,,,0.00,weatherlink.com 1.10,2013-03-29 06:50:00,
2013-03-29 03:05:00,36.4,34.0,30.30,WSW,253,0.0,0.0,91,0.00,,,0.00,weatherlink.com 1.10,2013-03-29 07:05:00,
2013-03-29 03:20:00,38.0,33.0,30.29,NNE,26,0.0,2.0,81,0.00,,,0.00,weatherlink.com 1.10,2013-03-29 07:20:00,
2013-03-29 03:35:00,38.6,32.0,30.30,NNE,26,0.0,1.0,77,0.00,,,0.00,weatherlink.com 1.10,2013-03-29 07:35:00,
2013-03-29 03:50:00,37.6,32.0,30.30,North,9,1.0,1.0,80,0.00,,,0.00,weatherlink.com 1.10,2013-03-29 07:50:00,
2013-03-29 04:05:00,37.0,32.0,30.30,North,9,0.0,1.0,82,0.00,,,0.00,weatherlink.com 1.10,2013-03-29 08:05:00,
2013-03-29 04:20:00,37.1,31.0,30.30,North,9,0.0,0.0,78,0.00,,,0.00,weatherlink.com 1.10,2013-03-29 08:20:00,
2013-03-29 04:35:00,36.5,30.0,30.30,North,9,0.0,0.0,78,0.00,,,0.00,weatherlink.com 1.10,2013-03-29 08:35:00,
2013-03-29 04:50:00,35.8,32.0,30.30,North,9,0.0,0.0,85,0.00,,,0.00,weatherlink.com 1.10,2013-03-29 08:50:00,
2013-03-29 05:05:00,35.2,31.0,30.30,North,9,0.0,0.0,86,0.00,,,0.00,weatherlink.com 1.10,2013-03-29 09:05:00,
2013-03-29 05:20:00,34.9,31.0,30.30,North,9,0.0,0.0,84,0.00,,,0.00,weatherlink.com 1.10,2013-03-29 09:20:00,
2013-03-29 05:35:00,34.5,30.0,30.30,North,9,0.0,0.0,84,0.00,,,0.00,weatherlink.com 1.10,2013-03-29 09:35:00,
2013-03-29 05:50:00,34.9,31.0,30.31,North,9,0.0,0.0,85,0.00,,,0.00,weatherlink.com 1.10,2013-03-29 09:50:00,
2013-03-29 06:05:00,34.3,30.0,30.31,North,9,0.0,0.0,84,0.00,,,0.00,weatherlink.com 1.10,2013-03-29 10:05:00,
2013-03-29 06:20:00,34.2,31.0,30.32,North,9,0.0,0.0,86,0.00,,,0.00,weatherlink.com 1.10,2013-03-29 10:20:00,
2013-03-29 06:36:00,33.8,30.0,30.32,North,9,0.0,0.0,86,0.00,,,0.00,weatherlink.com 1.10,2013-03-29 10:36:00,
2013-03-29 06:51:00,32.9,29.0,30.33,North,9,0.0,0.0,86,0.00,,,0.00,weatherlink.com 1.10,2013-03-29 10:51:00,
2013-03-29 07:06:00,33.0,30.0,30.33,North,9,0.0,0.0,89,0.00,,,0.00,weatherlink.com 1.10,2013-03-29 11:06:00,
2013-03-29 07:21:00,32.8,30.0,30.34,North,9,0.0,0.0,90,0.00,,,0.00,weatherlink.com 1.10,2013-03-29 11:21:00,
2013-03-29 07:36:00,32.9,30.0,30.34,North,9,0.0,0.0,89,0.00,,,0.00,weatherlink.com 1.10,2013-03-29 11:36:00,
2013-03-29 07:51:00,33.5,31.0,30.34,North,9,0.0,0.0,89,0.00,,,0.00,weatherlink.com 1.10,2013-03-29 11:51:00,
2013-03-29 08:06:00,34.5,32.0,30.34,North,9,0.0,0.0,90,0.00,,,0.00,weatherlink.com 1.10,2013-03-29 12:06:00,
2013-03-29 08:21:00,37.5,34.0,30.35,North,9,0.0,0.0,88,0.00,,,0.00,weatherlink.com 1.10,2013-03-29 12:21:00,
2013-03-29 08:36:00,42.3,36.0,30.35,NNE,18,0.0,1.0,77,0.00,,,0.00,weatherlink.com 1.10,2013-03-29 12:36:00,
2013-03-29 08:51:00,44.6,35.0,30.35,ENE,76,2.0,2.0,69,0.00,,,0.00,weatherlink.com 1.10,2013-03-29 12:51:00,
2013-03-29 09:21:00,48.3,34.0,30.35,ESE,108,1.0,3.0,58,0.00,,,0.00,weatherlink.com 1.10,2013-03-29 13:21:00,
2013-03-29 09:36:00,50.3,34.0,30.35,NE,42,2.0,3.0,53,0.00,,,0.00,weatherlink.com 1.10,2013-03-29 13:36:00,
2013-03-29 09:51:00,51.3,32.0,30.35,NE,49,2.0,6.0,48,0.00,,,0.00,weatherlink.com 1.10,2013-03-29 13:51:00,
2013-03-29 10:06:00,52.3,30.0,30.36,NE,54,1.0,6.0,42,0.00,,,0.00,weatherlink.com 1.10,2013-03-29 14:06:00,
2013-03-29 10:21:00,53.6,29.0,30.35,ENE,71,2.0,4.0,39,0.00,,,0.00,weatherlink.com 1.10,2013-03-29 14:21:00,
2013-03-29 10:36:00,54.8,31.0,30.36,ENE,73,6.0,9.0,40,0.00,,,0.00,weatherlink.com 1.10,2013-03-29 14:36:00,
2013-03-29 10:51:00,54.9,28.0,30.35,North,356,0.0,5.0,36,0.00,,,0.00,weatherlink.com 1.10,2013-03-29 14:51:00,
2013-03-29 11:06:00,55.8,29.0,30.35,WSW,255,0.0,5.0,36,0.00,,,0.00,weatherlink.com 1.10,2013-03-29 15:06:00,
2013-03-29 11:21:00,56.0,29.0,30.35,East,100,0.0,6.0,36,0.00,,,0.00,weatherlink.com 1.10,2013-03-29 15:21:00,
2013-03-29 11:51:00,56.9,29.0,30.34,ENE,72,4.0,5.0,34,0.00,,,0.00,weatherlink.com 1.10,2013-03-29 15:51:00,
2013-03-29 12:07:00,57.8,29.0,30.34,NW,316,1.0,9.0,33,0.00,,,0.00,weatherlink.com 1.10,2013-03-29 16:07:00,
2013-03-29 12:22:00,57.6,29.0,30.34,WNW,284,3.0,9.0,34,0.00,,,0.00,weatherlink.com 1.10,2013-03-29 16:22:00,
2013-03-29 12:37:00,57.9,29.0,30.33,North,8,5.0,10.0,33,0.00,,,0.00,weatherlink.com 1.10,2013-03-29 16:37:00,
2013-03-29 12:52:00,59.0,30.0,30.32,East,80,2.0,6.0,33,0.00,,,0.00,weatherlink.com 1.10,2013-03-29 16:52:00,
2013-03-29 13:07:00,59.3,27.0,30.32,NNW,338,5.0,13.0,29,0.00,,,0.00,weatherlink.com 1.10,2013-03-29 17:07:00,
2013-03-29 13:22:00,59.5,28.0,30.31,ENE,78,1.0,11.0,30,0.00,,,0.00,weatherlink.com 1.10,2013-03-29 17:22:00,
2013-03-29 13:37:00,59.2,33.0,30.31,SE,142,2.0,7.0,37,0.00,,,0.00,weatherlink.com 1.10,2013-03-29 17:37:00,
2013-03-29 13:52:00,58.8,33.0,30.29,SE,129,3.0,8.0,38,0.00,,,0.00,weatherlink.com 1.10,2013-03-29 17:52:00,
2013-03-29 14:07:00,59.1,34.0,30.29,SW,229,3.0,6.0,39,0.00,,,0.00,weatherlink.com 1.10,2013-03-29 18:07:00,
2013-03-29 14:22:00,58.8,34.0,30.28,WSW,238,4.0,12.0,40,0.00,,,0.00,weatherlink.com 1.10,2013-03-29 18:22:00,
2013-03-29 14:37:00,58.5,35.0,30.28,SSE,156,4.0,7.0,41,0.00,,,0.00,weatherlink.com 1.10,2013-03-29 18:37:00,
2013-03-29 14:52:00,58.2,34.0,30.27,South,175,5.0,14.0,40,0.00,,,0.00,weatherlink.com 1.10,2013-03-29 18:52:00,
2013-03-29 15:07:00,58.6,36.0,30.27,SSW,212,3.0,8.0,43,0.00,,,0.00,weatherlink.com 1.10,2013-03-29 19:07:00,
2013-03-29 15:22:00,59.2,36.0,30.25,SE,146,9.0,11.0,42,0.00,,,0.00,weatherlink.com 1.10,2013-03-29 19:22:00,
2013-03-29 15:37:00,58.5,36.0,30.24,SE,142,3.0,9.0,43,0.00,,,0.00,weatherlink.com 1.10,2013-03-29 19:37:00,
2013-03-29 15:52:00,58.1,37.0,30.24,West,270,3.0,9.0,45,0.00,,,0.00,weatherlink.com 1.10,2013-03-29 19:52:00,
2013-03-29 16:07:00,58.8,36.0,30.24,SW,228,7.0,9.0,43,0.00,,,0.00,weatherlink.com 1.10,2013-03-29 20:07:00,
2013-03-29 16:22:00,58.7,35.0,30.23,SW,228,4.0,9.0,42,0.00,,,0.00,weatherlink.com 1.10,2013-03-29 20:22:00,
2013-03-29 16:37:00,58.7,35.0,30.23,SSW,202,2.0,9.0,41,0.00,,,0.00,weatherlink.com 1.10,2013-03-29 20:37:00,
2013-03-29 16:52:00,58.7,34.0,30.23,ESE,115,3.0,9.0,40,0.00,,,0.00,weatherlink.com 1.10,2013-03-29 20:52:00,
2013-03-29 17:07:00,58.6,35.0,30.23,SSE,151,2.0,10.0,42,0.00,,,0.00,weatherlink.com 1.10,2013-03-29 21:07:00,
2013-03-29 17:22:00,58.4,37.0,30.23,SSW,209,3.0,9.0,46,0.00,,,0.00,weatherlink.com 1.10,2013-03-29 21:22:00,
2013-03-29 17:37:00,58.4,37.0,30.24,ESE,104,5.0,7.0,45,0.00,,,0.00,weatherlink.com 1.10,2013-03-29 21:37:00,
2013-03-29 17:52:00,58.1,38.0,30.23,SE,132,2.0,8.0,47,0.00,,,0.00,weatherlink.com 1.10,2013-03-29 21:52:00,
2013-03-29 18:07:00,57.7,37.0,30.23,SSE,158,2.0,8.0,47,0.00,,,0.00,weatherlink.com 1.10,2013-03-29 22:07:00,
2013-03-29 18:22:00,56.5,38.0,30.23,South,189,2.0,6.0,51,0.00,,,0.00,weatherlink.com 1.10,2013-03-29 22:22:00,
2013-03-29 18:37:00,55.8,38.0,30.23,SW,218,3.0,6.0,52,0.00,,,0.00,weatherlink.com 1.10,2013-03-29 22:37:00,
2013-03-29 18:52:00,55.1,38.0,30.23,SW,217,0.0,6.0,53,0.00,,,0.00,weatherlink.com 1.10,2013-03-29 22:52:00,
2013-03-29 19:07:00,54.1,39.0,30.24,WSW,256,3.0,4.0,56,0.00,,,0.00,weatherlink.com 1.10,2013-03-29 23:07:00,
2013-03-29 19:22:00,53.5,39.0,30.24,SW,225,0.0,3.0,59,0.00,,,0.00,weatherlink.com 1.10,2013-03-29 23:22:00,
2013-03-29 19:37:00,53.3,40.0,30.24,SW,232,3.0,5.0,60,0.00,,,0.00,weatherlink.com 1.10,2013-03-29 23:37:00,
2013-03-29 19:52:00,53.2,39.0,30.24,SW,225,1.0,3.0,60,0.00,,,0.00,weatherlink.com 1.10,2013-03-29 23:52:00,
2013-03-29 20:07:00,53.2,40.0,30.24,WSW,244,2.0,3.0,61,0.00,,,0.00,weatherlink.com 1.10,2013-03-30 00:07:00,
2013-03-29 20:22:00,53.1,40.0,30.24,WSW,246,0.0,3.0,61,0.00,,,0.00,weatherlink.com 1.10,2013-03-30 00:22:00,
2013-03-29 20:37:00,53.0,40.0,30.25,SSW,192,0.0,3.0,61,0.00,,,0.00,weatherlink.com 1.10,2013-03-30 00:37:00,
2013-03-29 20:52:00,52.9,40.0,30.25,SSW,194,3.0,5.0,63,0.00,,,0.00,weatherlink.com 1.10,2013-03-30 00:52:00,
2013-03-29 21:07:00,53.0,41.0,30.25,SW,226,1.0,2.0,64,0.00,,,0.00,weatherlink.com 1.10,2013-03-30 01:07:00,
2013-03-29 21:22:00,52.8,41.0,30.26,SSW,212,0.0,2.0,64,0.00,,,0.00,weatherlink.com 1.10,2013-03-30 01:22:00,
2013-03-29 21:52:00,52.6,40.0,30.26,SW,216,0.0,2.0,63,0.00,,,0.00,weatherlink.com 1.10,2013-03-30 01:52:00,
2013-03-29 22:07:00,52.4,40.0,30.25,SSW,208,0.0,2.0,62,0.00,,,0.00,weatherlink.com 1.10,2013-03-30 02:07:00,
2013-03-29 22:22:00,52.2,39.0,30.26,WSW,255,0.0,1.0,62,0.00,,,0.00,weatherlink.com 1.10,2013-03-30 02:22:00,
2013-03-29 22:37:00,51.8,39.0,30.26,SW,219,1.0,1.0,62,0.00,,,0.00,weatherlink.com 1.10,2013-03-30 02:37:00,
2013-03-29 22:52:00,51.6,40.0,30.26,SW,216,0.0,1.0,64,0.00,,,0.00,weatherlink.com 1.10,2013-03-30 02:52:00,
2013-03-29 23:07:00,51.9,40.0,30.26,SSW,203,2.0,2.0,64,0.00,,,0.00,weatherlink.com 1.10,2013-03-30 03:07:00,
2013-03-29 23:22:00,51.9,40.0,30.26,SW,234,1.0,2.0,63,0.00,,,0.00,weatherlink.com 1.10,2013-03-30 03:22:00,
2013-03-29 23:38:00,51.7,40.0,30.26,WSW,241,0.0,1.0,65,0.00,,,0.00,weatherlink.com 1.10,2013-03-30 03:38:00,
2013-03-29 23:52:00,51.6,40.0,30.26,WSW,243,0.0,1.0,65,0.00,,,0.00,weatherlink.com 1.10,2013-03-30 03:52:00,